(°C)
(°C)
-0°
-0°
-1°
-1°
-1°
-1°
-2°
ESE
SE
SE
ESE
ESE
ESE
ESE
(km/h)
10-20
10-23
10-18
10-20
10-21
10-22
10-22
(mm)
0
0
0
0
0
0
0
(%)
0
0
0
0
0
0
0

Élévation du soleil

/ -33.6°
sun-icon
UV 2
07:21
17:48
Gibbeuse décroissante (222°)
19:38
11:17

METAR pour Ivanka pri Dunaji (LZIB)

Heure Conditions Température/
Point de rosée
Vent Visibilité Météo Nuages Pression Changement Brut
VFR 5°C / 0°C 110º 6kt >10km - Clouds and Visibility OK 1030 - LZIB 241830Z 11006KT CAVOK 05/M00 Q1030
VFR 5°C / 0°C 100º 7kt >10km - Clouds and Visibility OK 1031 No Significant change LZIB 241800Z 10007KT CAVOK 05/M00 Q1031 NOSIG
VFR 5°C / 0°C 110º 7kt >10km - Clouds and Visibility OK 1031 No Significant change LZIB 241730Z 11007KT CAVOK 05/00 Q1031 NOSIG
VFR 6°C / 0°C 100º 6kt >10km - Clouds and Visibility OK 1031 No Significant change LZIB 241700Z 10006KT CAVOK 06/00 Q1031 NOSIG
VFR 6°C / 1°C 100º 7kt >10km - Clouds and Visibility OK 1031 No Significant change LZIB 241630Z 10007KT CAVOK 06/01 Q1031 NOSIG
VFR 7°C / 1°C 110º 7kt >10km - Clouds and Visibility OK 1031 No Significant change LZIB 241600Z 11007KT CAVOK 07/01 Q1031 NOSIG
VFR 9°C / 2°C 130º 6kt >10km - Clouds and Visibility OK 1031 No Significant change LZIB 241530Z 13006KT CAVOK 09/02 Q1031 NOSIG
VFR 11°C / 1°C 130º 7kt >10km - Clouds and Visibility OK 1031 No Significant change LZIB 241500Z 13007KT CAVOK 11/01 Q1031 NOSIG
VFR 12°C / 1°C 150º variable 110º to 170º 7kt >10km - Clouds and Visibility OK 1031 No Significant change LZIB 241430Z 15007KT 110V170 CAVOK 12/01 Q1031 NOSIG
VFR 12°C / 1°C 140º variable 110º to 170º 7kt >10km - Clouds and Visibility OK 1031 No Significant change LZIB 241400Z 14007KT 110V170 CAVOK 12/01 Q1031 NOSIG
VFR 12°C / 0°C 150º variable 120º to 180º 8kt >10km - Clouds and Visibility OK 1032 No Significant change LZIB 241330Z 15008KT 120V180 CAVOK 12/M00 Q1032 NOSIG
VFR 12°C / 1°C 160º variable 120º to 200º 7kt >10km - Clouds and Visibility OK 1032 No Significant change LZIB 241300Z 16007KT 120V200 CAVOK 12/01 Q1032 NOSIG
VFR 12°C / 1°C 130º variable 100º to 160º 8kt >10km - Clouds and Visibility OK 1032 No Significant change LZIB 241230Z 13008KT 100V160 CAVOK 12/01 Q1032 NOSIG
VFR 12°C / 2°C 120º 7kt >10km - Clouds and Visibility OK 1033 No Significant change LZIB 241200Z 12007KT CAVOK 12/02 Q1033 NOSIG
VFR 12°C / 1°C 130º variable 090º to 160º 6kt >10km - Clouds and Visibility OK 1033 No Significant change LZIB 241130Z 13006KT 090V160 CAVOK 12/01 Q1033 NOSIG
VFR 11°C / 1°C 110º variable 060º to 160º 5kt >10km - Clouds and Visibility OK 1033 No Significant change LZIB 241100Z 11005KT 060V160 CAVOK 11/01 Q1033 NOSIG
VFR 11°C / 1°C 100º variable 070º to 160º 5kt >10km - Clouds and Visibility OK 1033 No Significant change LZIB 241030Z 10005KT 070V160 CAVOK 11/01 Q1033 NOSIG
VFR 10°C / 2°C 110º variable 060º to 130º 5kt >10km - Clouds and Visibility OK 1033 No Significant change LZIB 241000Z 11005KT 060V130 CAVOK 10/02 Q1033 NOSIG
VFR 10°C / 2°C 90º variable 040º to 130º 5kt >10km - Clouds and Visibility OK 1033 No Significant change LZIB 240930Z 09005KT 040V130 CAVOK 10/02 Q1033 NOSIG
VFR 9°C / 3°C variable 2kt >10km - Clouds and Visibility OK 1033 No Significant change LZIB 240900Z VRB02KT CAVOK 09/03 Q1033 NOSIG
VFR 8°C / 2°C variable 2kt >10km - Clouds and Visibility OK 1033 No Significant change LZIB 240830Z VRB02KT CAVOK 08/02 Q1033 NOSIG
VFR 6°C / 2°C variable 2kt >10km - Clouds and Visibility OK 1033 No Significant change LZIB 240800Z VRB02KT CAVOK 06/02 Q1033 NOSIG
VFR 5°C / 1°C variable 2kt >10km - Clouds and Visibility OK 1033 No Significant change LZIB 240730Z VRB02KT CAVOK 05/01 Q1033 NOSIG
VFR 3°C / 0°C variable 2kt >10km - Clouds and Visibility OK 1033 No Significant change LZIB 240700Z VRB02KT CAVOK 03/00 Q1033 NOSIG

VFR

5°C / 0°C

[Plus]
Vent 110º 6kt
Visibilité >10km
Météo -
Nuages Clouds and Visibility OK
Pression 1030
Changement -
Brut LZIB 241830Z 11006KT CAVOK 05/M00 Q1030

VFR

5°C / 0°C

[Plus]
Vent 100º 7kt
Visibilité >10km
Météo -
Nuages Clouds and Visibility OK
Pression 1031
Changement No Significant change
Brut LZIB 241800Z 10007KT CAVOK 05/M00 Q1031 NOSIG

VFR

5°C / 0°C

[Plus]
Vent 110º 7kt
Visibilité >10km
Météo -
Nuages Clouds and Visibility OK
Pression 1031
Changement No Significant change
Brut LZIB 241730Z 11007KT CAVOK 05/00 Q1031 NOSIG

VFR

6°C / 0°C

[Plus]
Vent 100º 6kt
Visibilité >10km
Météo -
Nuages Clouds and Visibility OK
Pression 1031
Changement No Significant change
Brut LZIB 241700Z 10006KT CAVOK 06/00 Q1031 NOSIG

VFR

6°C / 1°C

[Plus]
Vent 100º 7kt
Visibilité >10km
Météo -
Nuages Clouds and Visibility OK
Pression 1031
Changement No Significant change
Brut LZIB 241630Z 10007KT CAVOK 06/01 Q1031 NOSIG

VFR

7°C / 1°C

[Plus]
Vent 110º 7kt
Visibilité >10km
Météo -
Nuages Clouds and Visibility OK
Pression 1031
Changement No Significant change
Brut LZIB 241600Z 11007KT CAVOK 07/01 Q1031 NOSIG

VFR

9°C / 2°C

[Plus]
Vent 130º 6kt
Visibilité >10km
Météo -
Nuages Clouds and Visibility OK
Pression 1031
Changement No Significant change
Brut LZIB 241530Z 13006KT CAVOK 09/02 Q1031 NOSIG

VFR

11°C / 1°C

[Plus]
Vent 130º 7kt
Visibilité >10km
Météo -
Nuages Clouds and Visibility OK
Pression 1031
Changement No Significant change
Brut LZIB 241500Z 13007KT CAVOK 11/01 Q1031 NOSIG

VFR

12°C / 1°C

[Plus]
Vent 150º variable 110º to 170º 7kt
Visibilité >10km
Météo -
Nuages Clouds and Visibility OK
Pression 1031
Changement No Significant change
Brut LZIB 241430Z 15007KT 110V170 CAVOK 12/01 Q1031 NOSIG

VFR

12°C / 1°C

[Plus]
Vent 140º variable 110º to 170º 7kt
Visibilité >10km
Météo -
Nuages Clouds and Visibility OK
Pression 1031
Changement No Significant change
Brut LZIB 241400Z 14007KT 110V170 CAVOK 12/01 Q1031 NOSIG

VFR

12°C / 0°C

[Plus]
Vent 150º variable 120º to 180º 8kt
Visibilité >10km
Météo -
Nuages Clouds and Visibility OK
Pression 1032
Changement No Significant change
Brut LZIB 241330Z 15008KT 120V180 CAVOK 12/M00 Q1032 NOSIG

VFR

12°C / 1°C

[Plus]
Vent 160º variable 120º to 200º 7kt
Visibilité >10km
Météo -
Nuages Clouds and Visibility OK
Pression 1032
Changement No Significant change
Brut LZIB 241300Z 16007KT 120V200 CAVOK 12/01 Q1032 NOSIG

VFR

12°C / 1°C

[Plus]
Vent 130º variable 100º to 160º 8kt
Visibilité >10km
Météo -
Nuages Clouds and Visibility OK
Pression 1032
Changement No Significant change
Brut LZIB 241230Z 13008KT 100V160 CAVOK 12/01 Q1032 NOSIG

VFR

12°C / 2°C

[Plus]
Vent 120º 7kt
Visibilité >10km
Météo -
Nuages Clouds and Visibility OK
Pression 1033
Changement No Significant change
Brut LZIB 241200Z 12007KT CAVOK 12/02 Q1033 NOSIG

VFR

12°C / 1°C

[Plus]
Vent 130º variable 090º to 160º 6kt
Visibilité >10km
Météo -
Nuages Clouds and Visibility OK
Pression 1033
Changement No Significant change
Brut LZIB 241130Z 13006KT 090V160 CAVOK 12/01 Q1033 NOSIG

VFR

11°C / 1°C

[Plus]
Vent 110º variable 060º to 160º 5kt
Visibilité >10km
Météo -
Nuages Clouds and Visibility OK
Pression 1033
Changement No Significant change
Brut LZIB 241100Z 11005KT 060V160 CAVOK 11/01 Q1033 NOSIG

VFR

11°C / 1°C

[Plus]
Vent 100º variable 070º to 160º 5kt
Visibilité >10km
Météo -
Nuages Clouds and Visibility OK
Pression 1033
Changement No Significant change
Brut LZIB 241030Z 10005KT 070V160 CAVOK 11/01 Q1033 NOSIG

VFR

10°C / 2°C

[Plus]
Vent 110º variable 060º to 130º 5kt
Visibilité >10km
Météo -
Nuages Clouds and Visibility OK
Pression 1033
Changement No Significant change
Brut LZIB 241000Z 11005KT 060V130 CAVOK 10/02 Q1033 NOSIG

VFR

10°C / 2°C

[Plus]
Vent 90º variable 040º to 130º 5kt
Visibilité >10km
Météo -
Nuages Clouds and Visibility OK
Pression 1033
Changement No Significant change
Brut LZIB 240930Z 09005KT 040V130 CAVOK 10/02 Q1033 NOSIG

VFR

9°C / 3°C

[Plus]
Vent variable 2kt
Visibilité >10km
Météo -
Nuages Clouds and Visibility OK
Pression 1033
Changement No Significant change
Brut LZIB 240900Z VRB02KT CAVOK 09/03 Q1033 NOSIG

VFR

8°C / 2°C

[Plus]
Vent variable 2kt
Visibilité >10km
Météo -
Nuages Clouds and Visibility OK
Pression 1033
Changement No Significant change
Brut LZIB 240830Z VRB02KT CAVOK 08/02 Q1033 NOSIG

VFR

6°C / 2°C

[Plus]
Vent variable 2kt
Visibilité >10km
Météo -
Nuages Clouds and Visibility OK
Pression 1033
Changement No Significant change
Brut LZIB 240800Z VRB02KT CAVOK 06/02 Q1033 NOSIG

VFR

5°C / 1°C

[Plus]
Vent variable 2kt
Visibilité >10km
Météo -
Nuages Clouds and Visibility OK
Pression 1033
Changement No Significant change
Brut LZIB 240730Z VRB02KT CAVOK 05/01 Q1033 NOSIG

VFR

3°C / 0°C

[Plus]
Vent variable 2kt
Visibilité >10km
Météo -
Nuages Clouds and Visibility OK
Pression 1033
Changement No Significant change
Brut LZIB 240700Z VRB02KT CAVOK 03/00 Q1033 NOSIG

TAF pour Ivanka pri Dunaji (LZIB)

From till


From till Wind 140º 8kt. Visibility 10km or more. Nil Significant Cloud.
Temporarly from till Wind 150º 10kt. Gust 25kt.

Brut: TAF LZIB 241700Z 2418/2518 14008KT CAVOK TEMPO 2509/2518 15010G25KT

Les images satellites et les pluies actuelles pour Ivanka pri Dunaji, Slovaquie

Le marqueur est placé sur Ivanka pri Dunaji. [Plus]

L'image satellite en temps réel combine la lumière visible pendant la journée et le rayonnement infrarouge pendant la nuit. La nuit, l'image n'est pas sombre car le rayonnement infrarouge permet de détecter les différences de température. Malheureusement, les nuages bas et le brouillard sont difficiles à distinguer des températures au sol et peuvent donc être presque invisibles pendant la nuit. Les images des satellites Météosat pour l'Europe sont mises à jour en temps réel toutes les 5 minutes. Les images GOES-16/GOES-17 (Amérique du Nord et du Sud) et Himawari (Asie) sont mises à jour toutes les 10 minutes.

La précipitation est estimée à partir des radars et des satellites. Les calculs des précipitations pour la nuit par le satellite sont moins précises que pour le jour. Les croix oranges marquent les lieux où la foudre a été détectée (sur Europe).

Copyright 2021 EUMETSAT / meteoblue. Données de foudre fournies par nowcast.

Radar et prévision de précipitation à court terme pour Ivanka pri Dunaji

Bruine
Légère
Modéré
Fort
Très fort
Grêle

Le marqueur est placé sur Ivanka pri Dunaji. Cette animation montre le Radar des précipitations pour les dernières heures, ainsi qu'une 1h prévision. La bruine ou les légères chutes de neiges peuvent ne pas être détectées par le radar. L'intensité des précipitations est visible avec un code couleur allant du bleu clair au violet foncé et orange.